sensor_id;sensor_type;location;lat;lon;timestamp;P1;durP1;ratioP1;P2;durP2;ratioP2
974;SDS011;6115;49.296;10.602;2023-07-29T00:02:24;1.83;;;1.30;;
974;SDS011;6115;49.296;10.602;2023-07-29T00:07:25;2.13;;;1.70;;
974;SDS011;6115;49.296;10.602;2023-07-29T00:12:26;1.97;;;1.43;;
974;SDS011;6115;49.296;10.602;2023-07-29T00:17:27;3.10;;;1.90;;
974;SDS011;6115;49.296;10.602;2023-07-29T00:22:27;1.93;;;1.30;;
974;SDS011;6115;49.296;10.602;2023-07-29T00:27:28;1.93;;;1.50;;
974;SDS011;6115;49.296;10.602;2023-07-29T00:32:28;2.40;;;1.70;;
974;SDS011;6115;49.296;10.602;2023-07-29T00:37:29;1.67;;;1.40;;
974;SDS011;6115;49.296;10.602;2023-07-29T00:42:30;2.60;;;2.20;;
974;SDS011;6115;49.296;10.602;2023-07-29T00:47:31;3.20;;;1.80;;
974;SDS011;6115;49.296;10.602;2023-07-29T00:52:31;2.20;;;1.60;;
974;SDS011;6115;49.296;10.602;2023-07-29T00:57:32;4.43;;;1.47;;
974;SDS011;6115;49.296;10.602;2023-07-29T01:02:33;2.07;;;1.50;;
974;SDS011;6115;49.296;10.602;2023-07-29T01:07:47;1.90;;;1.70;;
974;SDS011;6115;49.296;10.602;2023-07-29T01:13:01;3.33;;;2.70;;
974;SDS011;6115;49.296;10.602;2023-07-29T01:18:10;2.97;;;2.20;;
974;SDS011;6115;49.296;10.602;2023-07-29T01:23:26;3.07;;;1.93;;
974;SDS011;6115;49.296;10.602;2023-07-29T01:28:30;2.53;;;1.97;;
974;SDS011;6115;49.296;10.602;2023-07-29T01:33:33;3.13;;;2.60;;
974;SDS011;6115;49.296;10.602;2023-07-29T01:38:40;2.23;;;2.03;;
974;SDS011;6115;49.296;10.602;2023-07-29T01:43:43;1.83;;;1.57;;
974;SDS011;6115;49.296;10.602;2023-07-29T01:48:44;4.50;;;2.20;;
974;SDS011;6115;49.296;10.602;2023-07-29T01:53:45;3.47;;;2.27;;
974;SDS011;6115;49.296;10.602;2023-07-29T01:58:45;2.17;;;1.87;;
974;SDS011;6115;49.296;10.602;2023-07-29T02:03:46;1.90;;;1.53;;
974;SDS011;6115;49.296;10.602;2023-07-29T02:08:47;2.30;;;1.93;;
974;SDS011;6115;49.296;10.602;2023-07-29T02:13:47;2.90;;;1.77;;
974;SDS011;6115;49.296;10.602;2023-07-29T02:18:48;2.63;;;1.50;;
974;SDS011;6115;49.296;10.602;2023-07-29T02:23:49;2.30;;;1.63;;
974;SDS011;6115;49.296;10.602;2023-07-29T02:28:50;2.73;;;1.53;;
974;SDS011;6115;49.296;10.602;2023-07-29T02:33:50;3.70;;;1.93;;
974;SDS011;6115;49.296;10.602;2023-07-29T02:38:51;2.80;;;2.07;;
974;SDS011;6115;49.296;10.602;2023-07-29T02:43:52;2.37;;;1.77;;
974;SDS011;6115;49.296;10.602;2023-07-29T02:48:53;1.63;;;1.37;;
974;SDS011;6115;49.296;10.602;2023-07-29T02:53:54;1.73;;;1.33;;
974;SDS011;6115;49.296;10.602;2023-07-29T02:58:54;2.50;;;1.90;;
974;SDS011;6115;49.296;10.602;2023-07-29T03:03:55;1.83;;;1.40;;
974;SDS011;6115;49.296;10.602;2023-07-29T03:08:55;13.07;;;1.47;;
974;SDS011;6115;49.296;10.602;2023-07-29T03:13:56;1.73;;;1.40;;
974;SDS011;6115;49.296;10.602;2023-07-29T03:18:56;2.30;;;1.63;;
974;SDS011;6115;49.296;10.602;2023-07-29T03:23:57;2.13;;;1.10;;
974;SDS011;6115;49.296;10.602;2023-07-29T03:28:58;1.60;;;1.27;;
974;SDS011;6115;49.296;10.602;2023-07-29T03:33:58;7.53;;;1.90;;
974;SDS011;6115;49.296;10.602;2023-07-29T03:38:59;1.90;;;1.27;;
974;SDS011;6115;49.296;10.602;2023-07-29T03:44:00;3.03;;;1.30;;
974;SDS011;6115;49.296;10.602;2023-07-29T03:49:01;1.40;;;1.30;;
974;SDS011;6115;49.296;10.602;2023-07-29T03:54:01;1.70;;;1.30;;
974;SDS011;6115;49.296;10.602;2023-07-29T03:59:02;1.77;;;1.27;;
974;SDS011;6115;49.296;10.602;2023-07-29T04:04:04;2.13;;;1.43;;
974;SDS011;6115;49.296;10.602;2023-07-29T04:09:05;1.40;;;1.07;;
974;SDS011;6115;49.296;10.602;2023-07-29T04:14:05;1.57;;;1.40;;
974;SDS011;6115;49.296;10.602;2023-07-29T04:19:06;1.70;;;1.00;;
974;SDS011;6115;49.296;10.602;2023-07-29T04:24:06;2.10;;;1.40;;
974;SDS011;6115;49.296;10.602;2023-07-29T04:29:07;1.10;;;0.90;;
974;SDS011;6115;49.296;10.602;2023-07-29T04:34:08;1.33;;;1.03;;
974;SDS011;6115;49.296;10.602;2023-07-29T04:39:08;1.67;;;1.20;;
974;SDS011;6115;49.296;10.602;2023-07-29T04:44:09;1.73;;;1.40;;
974;SDS011;6115;49.296;10.602;2023-07-29T04:49:10;4.70;;;1.30;;
974;SDS011;6115;49.296;10.602;2023-07-29T04:54:10;1.60;;;1.03;;
974;SDS011;6115;49.296;10.602;2023-07-29T04:59:11;1.43;;;1.30;;
974;SDS011;6115;49.296;10.602;2023-07-29T05:04:12;1.50;;;1.00;;
974;SDS011;6115;49.296;10.602;2023-07-29T05:09:14;1.37;;;0.97;;
974;SDS011;6115;49.296;10.602;2023-07-29T05:14:17;2.13;;;1.20;;
974;SDS011;6115;49.296;10.602;2023-07-29T05:19:18;1.30;;;0.93;;
974;SDS011;6115;49.296;10.602;2023-07-29T05:24:18;2.20;;;1.43;;
974;SDS011;6115;49.296;10.602;2023-07-29T05:29:19;1.73;;;1.47;;
974;SDS011;6115;49.296;10.602;2023-07-29T05:34:20;1.40;;;1.27;;
974;SDS011;6115;49.296;10.602;2023-07-29T05:39:20;1.43;;;1.10;;
974;SDS011;6115;49.296;10.602;2023-07-29T05:44:21;1.27;;;0.90;;
974;SDS011;6115;49.296;10.602;2023-07-29T05:49:21;1.03;;;0.77;;
974;SDS011;6115;49.296;10.602;2023-07-29T05:54:22;3.43;;;1.20;;
974;SDS011;6115;49.296;10.602;2023-07-29T05:59:22;2.27;;;1.10;;
974;SDS011;6115;49.296;10.602;2023-07-29T06:04:23;1.63;;;1.17;;
974;SDS011;6115;49.296;10.602;2023-07-29T06:09:24;1.57;;;1.17;;
974;SDS011;6115;49.296;10.602;2023-07-29T06:14:25;7.23;;;1.10;;
974;SDS011;6115;49.296;10.602;2023-07-29T06:19:26;2.17;;;0.80;;
974;SDS011;6115;49.296;10.602;2023-07-29T06:24:26;1.93;;;0.80;;
974;SDS011;6115;49.296;10.602;2023-07-29T06:29:27;2.23;;;1.00;;
974;SDS011;6115;49.296;10.602;2023-07-29T06:34:27;1.27;;;0.83;;
974;SDS011;6115;49.296;10.602;2023-07-29T06:39:28;3.43;;;1.00;;
974;SDS011;6115;49.296;10.602;2023-07-29T06:44:29;1.93;;;1.17;;
974;SDS011;6115;49.296;10.602;2023-07-29T06:49:29;1.20;;;0.70;;
974;SDS011;6115;49.296;10.602;2023-07-29T06:54:30;1.63;;;1.03;;
974;SDS011;6115;49.296;10.602;2023-07-29T06:59:30;1.20;;;1.00;;
974;SDS011;6115;49.296;10.602;2023-07-29T07:04:31;1.37;;;0.90;;
974;SDS011;6115;49.296;10.602;2023-07-29T07:09:31;2.00;;;1.30;;
974;SDS011;6115;49.296;10.602;2023-07-29T07:14:32;1.20;;;0.93;;
974;SDS011;6115;49.296;10.602;2023-07-29T07:19:32;4.47;;;1.87;;
974;SDS011;6115;49.296;10.602;2023-07-29T07:24:33;1.60;;;1.20;;
974;SDS011;6115;49.296;10.602;2023-07-29T07:29:33;1.37;;;1.00;;
974;SDS011;6115;49.296;10.602;2023-07-29T07:34:34;1.20;;;1.00;;
974;SDS011;6115;49.296;10.602;2023-07-29T07:39:34;1.20;;;0.93;;
974;SDS011;6115;49.296;10.602;2023-07-29T07:44:35;1.47;;;1.00;;
974;SDS011;6115;49.296;10.602;2023-07-29T07:49:35;1.30;;;0.90;;
974;SDS011;6115;49.296;10.602;2023-07-29T07:54:36;1.10;;;0.90;;
974;SDS011;6115;49.296;10.602;2023-07-29T07:59:36;1.30;;;1.00;;
974;SDS011;6115;49.296;10.602;2023-07-29T08:04:37;1.63;;;1.00;;
974;SDS011;6115;49.296;10.602;2023-07-29T08:09:37;2.00;;;1.17;;
974;SDS011;6115;49.296;10.602;2023-07-29T08:14:38;2.00;;;1.00;;
974;SDS011;6115;49.296;10.602;2023-07-29T08:19:38;8.90;;;2.50;;
974;SDS011;6115;49.296;10.602;2023-07-29T08:24:39;1.80;;;1.27;;
974;SDS011;6115;49.296;10.602;2023-07-29T08:29:39;1.63;;;1.30;;
974;SDS011;6115;49.296;10.602;2023-07-29T08:34:40;1.90;;;1.50;;
974;SDS011;6115;49.296;10.602;2023-07-29T08:39:41;2.80;;;1.10;;
974;SDS011;6115;49.296;10.602;2023-07-29T08:44:42;6.40;;;1.27;;
974;SDS011;6115;49.296;10.602;2023-07-29T08:49:44;1.43;;;1.23;;
974;SDS011;6115;49.296;10.602;2023-07-29T08:54:47;3.13;;;1.67;;
974;SDS011;6115;49.296;10.602;2023-07-29T08:59:47;1.50;;;1.10;;
974;SDS011;6115;49.296;10.602;2023-07-29T09:04:48;2.40;;;1.60;;
974;SDS011;6115;49.296;10.602;2023-07-29T09:09:49;1.20;;;0.93;;
974;SDS011;6115;49.296;10.602;2023-07-29T09:14:53;1.33;;;0.90;;
974;SDS011;6115;49.296;10.602;2023-07-29T09:19:54;1.57;;;1.10;;
974;SDS011;6115;49.296;10.602;2023-07-29T09:24:56;2.13;;;1.10;;
974;SDS011;6115;49.296;10.602;2023-07-29T09:29:58;2.20;;;1.10;;
974;SDS011;6115;49.296;10.602;2023-07-29T09:34:59;1.33;;;1.10;;
974;SDS011;6115;49.296;10.602;2023-07-29T09:39:59;2.10;;;1.53;;
974;SDS011;6115;49.296;10.602;2023-07-29T09:45:00;1.00;;;0.80;;
974;SDS011;6115;49.296;10.602;2023-07-29T09:50:00;1.50;;;1.10;;
974;SDS011;6115;49.296;10.602;2023-07-29T09:55:01;1.60;;;1.30;;
974;SDS011;6115;49.296;10.602;2023-07-29T10:00:02;2.13;;;1.53;;
974;SDS011;6115;49.296;10.602;2023-07-29T10:05:06;1.47;;;1.03;;
974;SDS011;6115;49.296;10.602;2023-07-29T10:10:08;1.30;;;1.00;;
974;SDS011;6115;49.296;10.602;2023-07-29T10:15:09;1.63;;;1.23;;
974;SDS011;6115;49.296;10.602;2023-07-29T10:20:10;3.40;;;1.40;;
974;SDS011;6115;49.296;10.602;2023-07-29T10:25:23;3.10;;;1.70;;
974;SDS011;6115;49.296;10.602;2023-07-29T10:30:25;1.63;;;1.40;;
974;SDS011;6115;49.296;10.602;2023-07-29T10:35:28;1.63;;;1.43;;
974;SDS011;6115;49.296;10.602;2023-07-29T10:45:51;1.63;;;1.23;;
974;SDS011;6115;49.296;10.602;2023-07-29T10:51:16;1.83;;;1.50;;
974;SDS011;6115;49.296;10.602;2023-07-29T10:56:30;2.10;;;1.27;;
974;SDS011;6115;49.296;10.602;2023-07-29T11:01:32;2.00;;;1.33;;
974;SDS011;6115;49.296;10.602;2023-07-29T11:06:34;2.50;;;1.60;;
974;SDS011;6115;49.296;10.602;2023-07-29T11:12:05;1.53;;;1.37;;
974;SDS011;6115;49.296;10.602;2023-07-29T11:17:26;1.67;;;1.30;;
974;SDS011;6115;49.296;10.602;2023-07-29T11:22:27;1.97;;;1.57;;
974;SDS011;6115;49.296;10.602;2023-07-29T11:27:28;1.57;;;1.30;;
974;SDS011;6115;49.296;10.602;2023-07-29T11:32:29;2.57;;;1.70;;
974;SDS011;6115;49.296;10.602;2023-07-29T11:37:29;3.10;;;1.50;;
974;SDS011;6115;49.296;10.602;2023-07-29T11:42:33;2.03;;;1.70;;
974;SDS011;6115;49.296;10.602;2023-07-29T11:47:34;3.00;;;1.70;;
974;SDS011;6115;49.296;10.602;2023-07-29T11:52:37;1.20;;;1.10;;
974;SDS011;6115;49.296;10.602;2023-07-29T11:57:39;1.60;;;1.20;;
974;SDS011;6115;49.296;10.602;2023-07-29T12:02:42;1.60;;;1.20;;
974;SDS011;6115;49.296;10.602;2023-07-29T12:07:46;1.50;;;1.13;;
974;SDS011;6115;49.296;10.602;2023-07-29T12:12:50;1.50;;;1.20;;
974;SDS011;6115;49.296;10.602;2023-07-29T12:17:52;1.40;;;1.00;;
974;SDS011;6115;49.296;10.602;2023-07-29T12:22:57;2.83;;;1.60;;
974;SDS011;6115;49.296;10.602;2023-07-29T12:28:02;1.67;;;1.33;;
974;SDS011;6115;49.296;10.602;2023-07-29T12:33:06;2.03;;;1.23;;
974;SDS011;6115;49.296;10.602;2023-07-29T12:38:07;1.40;;;1.10;;
974;SDS011;6115;49.296;10.602;2023-07-29T12:43:07;1.27;;;1.00;;
974;SDS011;6115;49.296;10.602;2023-07-29T12:48:08;1.10;;;0.90;;
974;SDS011;6115;49.296;10.602;2023-07-29T12:53:09;1.30;;;0.90;;
974;SDS011;6115;49.296;10.602;2023-07-29T12:58:14;1.00;;;0.70;;
974;SDS011;6115;49.296;10.602;2023-07-29T13:03:14;1.80;;;1.10;;
974;SDS011;6115;49.296;10.602;2023-07-29T13:08:16;1.43;;;0.93;;
974;SDS011;6115;49.296;10.602;2023-07-29T13:13:25;1.10;;;0.80;;
974;SDS011;6115;49.296;10.602;2023-07-29T13:18:25;1.20;;;0.90;;
974;SDS011;6115;49.296;10.602;2023-07-29T13:23:26;1.40;;;0.90;;
974;SDS011;6115;49.296;10.602;2023-07-29T13:28:27;1.03;;;0.73;;
974;SDS011;6115;49.296;10.602;2023-07-29T13:33:28;2.10;;;0.97;;
974;SDS011;6115;49.296;10.602;2023-07-29T13:38:33;1.10;;;0.83;;
974;SDS011;6115;49.296;10.602;2023-07-29T13:43:34;1.00;;;0.70;;
974;SDS011;6115;49.296;10.602;2023-07-29T13:48:34;1.00;;;0.70;;
974;SDS011;6115;49.296;10.602;2023-07-29T13:53:35;1.00;;;0.67;;
974;SDS011;6115;49.296;10.602;2023-07-29T13:58:36;1.00;;;0.70;;
974;SDS011;6115;49.296;10.602;2023-07-29T14:03:36;1.80;;;0.90;;
974;SDS011;6115;49.296;10.602;2023-07-29T14:08:37;2.00;;;1.10;;
974;SDS011;6115;49.296;10.602;2023-07-29T14:13:40;1.10;;;0.73;;
974;SDS011;6115;49.296;10.602;2023-07-29T14:18:41;1.40;;;1.20;;
974;SDS011;6115;49.296;10.602;2023-07-29T14:23:41;1.27;;;0.83;;
974;SDS011;6115;49.296;10.602;2023-07-29T14:28:42;1.30;;;0.80;;
974;SDS011;6115;49.296;10.602;2023-07-29T14:33:45;1.87;;;0.90;;
974;SDS011;6115;49.296;10.602;2023-07-29T14:38:46;1.50;;;0.83;;
974;SDS011;6115;49.296;10.602;2023-07-29T14:43:46;1.07;;;0.80;;
974;SDS011;6115;49.296;10.602;2023-07-29T14:48:47;1.00;;;0.80;;
974;SDS011;6115;49.296;10.602;2023-07-29T14:53:48;1.30;;;0.90;;
974;SDS011;6115;49.296;10.602;2023-07-29T14:58:48;1.23;;;0.97;;
974;SDS011;6115;49.296;10.602;2023-07-29T15:03:50;1.50;;;1.03;;
974;SDS011;6115;49.296;10.602;2023-07-29T15:08:51;1.00;;;0.70;;
974;SDS011;6115;49.296;10.602;2023-07-29T15:13:51;1.40;;;1.00;;
974;SDS011;6115;49.296;10.602;2023-07-29T15:18:52;1.77;;;1.07;;
974;SDS011;6115;49.296;10.602;2023-07-29T15:23:52;1.93;;;1.10;;
974;SDS011;6115;49.296;10.602;2023-07-29T15:28:53;1.20;;;0.83;;
974;SDS011;6115;49.296;10.602;2023-07-29T15:33:53;1.50;;;0.90;;
974;SDS011;6115;49.296;10.602;2023-07-29T15:38:54;1.83;;;0.90;;
974;SDS011;6115;49.296;10.602;2023-07-29T15:43:54;1.00;;;0.80;;
974;SDS011;6115;49.296;10.602;2023-07-29T15:48:55;1.30;;;1.00;;
974;SDS011;6115;49.296;10.602;2023-07-29T15:53:59;1.40;;;1.07;;
974;SDS011;6115;49.296;10.602;2023-07-29T15:58:59;1.20;;;0.90;;
974;SDS011;6115;49.296;10.602;2023-07-29T16:04:00;1.13;;;0.90;;
974;SDS011;6115;49.296;10.602;2023-07-29T16:09:00;1.73;;;0.90;;
974;SDS011;6115;49.296;10.602;2023-07-29T16:14:06;1.30;;;0.80;;
974;SDS011;6115;49.296;10.602;2023-07-29T16:19:06;1.60;;;1.20;;
974;SDS011;6115;49.296;10.602;2023-07-29T16:24:09;1.20;;;1.03;;
974;SDS011;6115;49.296;10.602;2023-07-29T16:29:09;1.57;;;1.20;;
974;SDS011;6115;49.296;10.602;2023-07-29T16:34:10;1.20;;;0.80;;
974;SDS011;6115;49.296;10.602;2023-07-29T16:39:10;1.70;;;1.20;;
974;SDS011;6115;49.296;10.602;2023-07-29T16:44:11;1.83;;;1.10;;
974;SDS011;6115;49.296;10.602;2023-07-29T16:49:11;1.47;;;1.00;;
974;SDS011;6115;49.296;10.602;2023-07-29T16:54:12;1.77;;;1.43;;
974;SDS011;6115;49.296;10.602;2023-07-29T16:59:17;1.50;;;1.10;;
974;SDS011;6115;49.296;10.602;2023-07-29T17:04:18;2.03;;;1.03;;
974;SDS011;6115;49.296;10.602;2023-07-29T17:09:18;1.40;;;1.20;;
974;SDS011;6115;49.296;10.602;2023-07-29T17:14:19;1.10;;;1.00;;
974;SDS011;6115;49.296;10.602;2023-07-29T17:19:19;1.87;;;1.40;;
974;SDS011;6115;49.296;10.602;2023-07-29T17:24:20;1.10;;;0.80;;
974;SDS011;6115;49.296;10.602;2023-07-29T17:29:20;2.17;;;1.20;;
974;SDS011;6115;49.296;10.602;2023-07-29T17:34:21;1.30;;;0.97;;
974;SDS011;6115;49.296;10.602;2023-07-29T17:39:25;1.30;;;1.07;;
974;SDS011;6115;49.296;10.602;2023-07-29T17:44:25;1.40;;;1.13;;
974;SDS011;6115;49.296;10.602;2023-07-29T17:49:26;1.50;;;1.20;;
974;SDS011;6115;49.296;10.602;2023-07-29T17:54:26;2.50;;;1.23;;
974;SDS011;6115;49.296;10.602;2023-07-29T17:59:27;2.07;;;1.10;;
974;SDS011;6115;49.296;10.602;2023-07-29T18:04:28;1.30;;;1.00;;
974;SDS011;6115;49.296;10.602;2023-07-29T18:09:29;1.63;;;1.17;;
974;SDS011;6115;49.296;10.602;2023-07-29T18:14:30;1.80;;;1.23;;
974;SDS011;6115;49.296;10.602;2023-07-29T18:19:30;1.20;;;0.90;;
974;SDS011;6115;49.296;10.602;2023-07-29T18:24:32;1.47;;;0.90;;
974;SDS011;6115;49.296;10.602;2023-07-29T18:29:33;1.40;;;1.10;;
974;SDS011;6115;49.296;10.602;2023-07-29T18:34:33;1.30;;;1.10;;
974;SDS011;6115;49.296;10.602;2023-07-29T18:39:34;1.20;;;0.87;;
974;SDS011;6115;49.296;10.602;2023-07-29T18:44:35;1.80;;;1.10;;
974;SDS011;6115;49.296;10.602;2023-07-29T18:49:36;3.57;;;1.10;;
974;SDS011;6115;49.296;10.602;2023-07-29T18:54:37;3.00;;;1.30;;
974;SDS011;6115;49.296;10.602;2023-07-29T18:59:39;1.10;;;0.70;;
974;SDS011;6115;49.296;10.602;2023-07-29T19:04:40;1.53;;;1.00;;
974;SDS011;6115;49.296;10.602;2023-07-29T19:09:43;1.40;;;1.17;;
974;SDS011;6115;49.296;10.602;2023-07-29T19:14:45;1.20;;;0.90;;
974;SDS011;6115;49.296;10.602;2023-07-29T19:19:45;1.60;;;1.20;;
974;SDS011;6115;49.296;10.602;2023-07-29T19:24:47;1.53;;;1.17;;
974;SDS011;6115;49.296;10.602;2023-07-29T19:29:47;1.73;;;1.00;;
974;SDS011;6115;49.296;10.602;2023-07-29T19:34:52;1.87;;;1.20;;
974;SDS011;6115;49.296;10.602;2023-07-29T19:39:54;1.30;;;1.00;;
974;SDS011;6115;49.296;10.602;2023-07-29T19:44:55;1.60;;;1.30;;
974;SDS011;6115;49.296;10.602;2023-07-29T19:49:56;2.40;;;1.20;;
974;SDS011;6115;49.296;10.602;2023-07-29T19:54:56;1.50;;;0.93;;
974;SDS011;6115;49.296;10.602;2023-07-29T19:59:57;1.20;;;0.90;;
974;SDS011;6115;49.296;10.602;2023-07-29T20:04:57;1.30;;;0.97;;
974;SDS011;6115;49.296;10.602;2023-07-29T20:09:58;1.50;;;1.00;;
974;SDS011;6115;49.296;10.602;2023-07-29T20:14:58;1.93;;;1.33;;
974;SDS011;6115;49.296;10.602;2023-07-29T20:20:03;1.67;;;0.80;;
974;SDS011;6115;49.296;10.602;2023-07-29T20:25:04;1.30;;;0.77;;
974;SDS011;6115;49.296;10.602;2023-07-29T20:30:05;1.57;;;0.93;;
974;SDS011;6115;49.296;10.602;2023-07-29T20:35:06;1.53;;;1.00;;
974;SDS011;6115;49.296;10.602;2023-07-29T20:40:07;1.00;;;0.70;;
974;SDS011;6115;49.296;10.602;2023-07-29T20:45:08;1.27;;;0.80;;
974;SDS011;6115;49.296;10.602;2023-07-29T20:50:09;1.43;;;0.80;;
974;SDS011;6115;49.296;10.602;2023-07-29T20:55:10;1.20;;;0.90;;
974;SDS011;6115;49.296;10.602;2023-07-29T21:00:10;1.73;;;1.00;;
974;SDS011;6115;49.296;10.602;2023-07-29T21:05:11;2.20;;;1.13;;
974;SDS011;6115;49.296;10.602;2023-07-29T21:10:11;1.20;;;0.90;;
974;SDS011;6115;49.296;10.602;2023-07-29T21:15:12;1.40;;;0.90;;
974;SDS011;6115;49.296;10.602;2023-07-29T21:20:12;1.17;;;0.90;;
974;SDS011;6115;49.296;10.602;2023-07-29T21:25:13;1.40;;;0.93;;
974;SDS011;6115;49.296;10.602;2023-07-29T21:30:13;1.17;;;0.90;;
974;SDS011;6115;49.296;10.602;2023-07-29T21:35:14;2.13;;;0.80;;
974;SDS011;6115;49.296;10.602;2023-07-29T21:40:15;1.47;;;1.13;;
974;SDS011;6115;49.296;10.602;2023-07-29T21:45:15;1.50;;;1.00;;
974;SDS011;6115;49.296;10.602;2023-07-29T21:50:16;1.53;;;0.83;;
974;SDS011;6115;49.296;10.602;2023-07-29T21:55:16;2.50;;;0.90;;
974;SDS011;6115;49.296;10.602;2023-07-29T22:00:18;1.30;;;0.90;;
974;SDS011;6115;49.296;10.602;2023-07-29T22:05:18;1.40;;;0.93;;
974;SDS011;6115;49.296;10.602;2023-07-29T22:10:19;1.33;;;1.10;;
974;SDS011;6115;49.296;10.602;2023-07-29T22:15:20;1.67;;;1.10;;
974;SDS011;6115;49.296;10.602;2023-07-29T22:20:20;1.93;;;1.00;;
974;SDS011;6115;49.296;10.602;2023-07-29T22:25:21;1.30;;;0.83;;
974;SDS011;6115;49.296;10.602;2023-07-29T22:30:22;2.13;;;1.27;;
974;SDS011;6115;49.296;10.602;2023-07-29T22:35:22;1.30;;;0.90;;
974;SDS011;6115;49.296;10.602;2023-07-29T22:40:23;2.63;;;1.40;;
974;SDS011;6115;49.296;10.602;2023-07-29T22:45:23;1.83;;;1.40;;
974;SDS011;6115;49.296;10.602;2023-07-29T22:50:24;1.57;;;1.13;;
974;SDS011;6115;49.296;10.602;2023-07-29T22:55:25;2.97;;;1.37;;
974;SDS011;6115;49.296;10.602;2023-07-29T23:00:25;1.70;;;1.10;;
974;SDS011;6115;49.296;10.602;2023-07-29T23:05:26;1.20;;;0.90;;
974;SDS011;6115;49.296;10.602;2023-07-29T23:10:26;1.43;;;1.10;;
974;SDS011;6115;49.296;10.602;2023-07-29T23:15:28;2.00;;;1.30;;
974;SDS011;6115;49.296;10.602;2023-07-29T23:20:33;2.23;;;1.20;;
974;SDS011;6115;49.296;10.602;2023-07-29T23:25:34;1.60;;;1.10;;
974;SDS011;6115;49.296;10.602;2023-07-29T23:30:35;1.70;;;1.37;;
974;SDS011;6115;49.296;10.602;2023-07-29T23:35:37;2.20;;;1.60;;
974;SDS011;6115;49.296;10.602;2023-07-29T23:40:38;1.43;;;0.80;;
974;SDS011;6115;49.296;10.602;2023-07-29T23:45:38;2.17;;;1.10;;
974;SDS011;6115;49.296;10.602;2023-07-29T23:50:39;1.80;;;1.17;;
974;SDS011;6115;49.296;10.602;2023-07-29T23:55:40;1.50;;;1.40;;
